createdAt,value
2019-02-26T00:00:03.331Z,7.40
2019-02-26T00:02:33.785Z,7.40
2019-02-26T00:05:04.309Z,7.40
2019-02-26T00:07:34.779Z,7.30
2019-02-26T00:10:07.123Z,7.30
2019-02-26T00:12:37.581Z,7.30
2019-02-26T00:15:09.884Z,7.30
2019-02-26T00:17:42.604Z,7.30
2019-02-26T00:20:13.282Z,7.30
2019-02-26T00:22:44.723Z,7.30
2019-02-26T00:25:16.172Z,7.30
2019-02-26T00:27:49.324Z,7.30
2019-02-26T00:30:19.410Z,7.20
2019-02-26T00:32:49.829Z,7.20
2019-02-26T00:35:21.241Z,7.20
2019-02-26T00:37:53.459Z,7.20
2019-02-26T00:40:24.677Z,7.20
2019-02-26T00:42:57.566Z,7.20
2019-02-26T00:45:29.466Z,7.20
2019-02-26T00:47:59.567Z,7.20
2019-02-26T00:50:30.921Z,7.20
2019-02-26T00:53:03.952Z,7.20
2019-02-26T00:55:35.660Z,7.10
2019-02-26T00:58:08.443Z,7.10
2019-02-26T01:00:38.806Z,7.10
2019-02-26T01:03:10.994Z,7.10
2019-02-26T01:05:43.109Z,7.10
2019-02-26T01:08:15.746Z,7.10
2019-02-26T01:10:45.859Z,7.10
2019-02-26T01:13:16.332Z,7.10
2019-02-26T01:15:46.779Z,7.10
2019-02-26T01:18:18.030Z,7.00
2019-02-26T01:20:52.254Z,7.00
2019-02-26T01:23:24.252Z,7.00
2019-02-26T01:25:54.708Z,6.90
2019-02-26T01:28:27.080Z,6.90
2019-02-26T01:30:58.401Z,6.90
2019-02-26T01:33:31.945Z,6.80
2019-02-26T01:36:02.671Z,6.80
2019-02-26T01:38:37.370Z,6.80
2019-02-26T01:41:05.543Z,6.80
2019-02-26T01:43:35.957Z,6.80
2019-02-26T01:46:07.796Z,6.80
2019-02-26T01:48:39.506Z,6.80
2019-02-26T01:51:10.668Z,6.80
2019-02-26T01:53:42.269Z,6.80
2019-02-26T01:56:13.250Z,6.70
2019-02-26T01:58:43.675Z,6.70
2019-02-26T02:01:14.835Z,6.60
2019-02-26T02:03:47.029Z,6.60
2019-02-26T02:06:18.405Z,6.60
2019-02-26T02:08:50.480Z,6.70
2019-02-26T02:11:23.873Z,6.70
2019-02-26T02:13:53.144Z,6.60
2019-02-26T02:16:26.208Z,6.60
2019-02-26T02:18:58.187Z,6.60
2019-02-26T02:21:31.092Z,6.60
2019-02-26T02:24:01.168Z,6.60
2019-02-26T02:26:31.627Z,6.60
2019-02-26T02:29:02.022Z,6.60
2019-02-26T02:31:34.865Z,6.50
2019-02-26T02:34:04.600Z,6.50
2019-02-26T02:36:34.992Z,6.50
2019-02-26T02:39:10.370Z,6.50
2019-02-26T02:41:39.382Z,6.40
2019-02-26T02:44:14.485Z,6.40
2019-02-26T02:46:44.567Z,6.40
2019-02-26T02:49:17.799Z,6.40
2019-02-26T02:51:47.694Z,6.40
2019-02-26T02:54:20.895Z,6.40
2019-02-26T02:56:50.483Z,6.30
2019-02-26T02:59:20.883Z,6.30
2019-02-26T03:01:52.694Z,6.30
2019-02-26T03:04:27.866Z,6.20
2019-02-26T03:06:57.987Z,6.20
2019-02-26T03:09:27.754Z,6.20
2019-02-26T03:11:58.173Z,6.20
2019-02-26T03:14:30.772Z,6.20
2019-02-26T03:17:00.780Z,6.20
2019-02-26T03:19:32.621Z,6.10
2019-02-26T03:22:03.404Z,6.10
2019-02-26T03:24:35.945Z,6.10
2019-02-26T03:27:06.398Z,6.10
2019-02-26T03:29:36.819Z,6.10
2019-02-26T03:32:07.259Z,6.10
2019-02-26T03:34:37.703Z,6.00
2019-02-26T03:37:11.074Z,6.00
2019-02-26T03:39:41.707Z,6.00
2019-02-26T03:42:14.310Z,6.00
2019-02-26T03:44:46.932Z,6.00
2019-02-26T03:47:18.835Z,6.00
2019-02-26T03:49:48.673Z,5.90
2019-02-26T03:52:21.372Z,5.90
2019-02-26T03:54:51.872Z,5.90
2019-02-26T03:57:24.671Z,5.90
2019-02-26T03:59:54.670Z,5.90
2019-02-26T04:02:25.085Z,5.80
2019-02-26T04:04:57.252Z,5.80
2019-02-26T04:07:28.331Z,5.80
2019-02-26T04:09:59.816Z,5.80
2019-02-26T04:12:30.297Z,5.80
2019-02-26T04:15:00.707Z,5.80
2019-02-26T04:17:33.513Z,5.70
2019-02-26T04:20:05.752Z,5.70
2019-02-26T04:22:40.211Z,5.70
2019-02-26T04:26:26.209Z,5.70
2019-02-26T04:29:44.083Z,5.70
2019-02-26T04:33:03.984Z,5.60
2019-02-26T04:36:11.736Z,5.60
2019-02-26T04:39:29.779Z,5.60
2019-02-26T04:43:01.858Z,5.60
2019-02-26T04:46:28.822Z,5.60
2019-02-26T04:48:59.192Z,5.50
2019-02-26T04:51:29.622Z,5.50
2019-02-26T04:54:02.000Z,5.40
2019-02-26T04:56:35.942Z,5.40
2019-02-26T04:59:07.066Z,5.40
2019-02-26T05:01:36.523Z,5.40
2019-02-26T05:04:07.025Z,5.40
2019-02-26T05:06:37.467Z,5.40
2019-02-26T05:09:10.605Z,5.40
2019-02-26T05:11:41.051Z,5.40
2019-02-26T05:14:12.287Z,5.30
2019-02-26T05:16:43.650Z,5.30
2019-02-26T05:19:16.398Z,5.30
2019-02-26T05:21:46.204Z,5.30
2019-02-26T05:24:21.283Z,5.30
2019-02-26T05:26:52.121Z,5.30
2019-02-26T05:29:22.548Z,5.30
2019-02-26T05:31:55.438Z,5.20
2019-02-26T05:34:25.924Z,5.20
2019-02-26T05:36:56.664Z,5.20
2019-02-26T05:39:28.797Z,5.20
2019-02-26T05:42:01.283Z,5.20
2019-02-26T05:44:31.618Z,5.20
2019-02-26T05:47:02.092Z,5.20
2019-02-26T05:49:35.320Z,5.20
2019-02-26T05:52:06.946Z,5.20
2019-02-26T05:54:36.894Z,5.20
2019-02-26T05:57:10.806Z,5.20
2019-02-26T05:59:41.840Z,5.20
2019-02-26T06:02:14.057Z,5.20
2019-02-26T06:04:44.580Z,5.20
2019-02-26T06:07:19.254Z,5.10
2019-02-26T06:09:50.886Z,5.10
2019-02-26T06:12:20.364Z,5.20
2019-02-26T06:14:51.466Z,5.10
2019-02-26T06:17:22.472Z,5.10
2019-02-26T06:19:52.929Z,5.10
2019-02-26T06:22:26.425Z,5.10
2019-02-26T06:24:59.527Z,5.10
2019-02-26T06:27:27.699Z,5.10
2019-02-26T06:30:00.270Z,5.20
2019-02-26T06:32:32.823Z,5.20
2019-02-26T06:35:06.151Z,5.30
2019-02-26T06:37:35.926Z,5.30
2019-02-26T06:40:08.540Z,5.30
2019-02-26T06:42:40.348Z,5.30
2019-02-26T06:45:13.895Z,5.40
2019-02-26T06:47:45.650Z,5.40
2019-02-26T06:50:18.823Z,5.40
2019-02-26T06:52:50.703Z,5.50
2019-02-26T06:55:21.551Z,5.60
2019-02-26T06:57:52.779Z,5.60
2019-02-26T07:00:26.714Z,5.70
2019-02-26T07:02:56.373Z,5.80
2019-02-26T07:05:27.646Z,5.80
2019-02-26T07:07:59.593Z,5.80
2019-02-26T07:10:31.414Z,5.90
2019-02-26T07:13:05.193Z,6.00
2019-02-26T07:15:34.969Z,6.00
2019-02-26T07:18:07.684Z,6.10
2019-02-26T07:20:39.989Z,6.10
2019-02-26T07:23:10.601Z,6.20
2019-02-26T07:25:44.008Z,6.20
2019-02-26T07:28:15.325Z,6.30
2019-02-26T07:30:46.927Z,6.40
2019-02-26T07:33:17.526Z,6.40
2019-02-26T07:35:47.927Z,6.60
2019-02-26T07:38:20.734Z,7.90
2019-02-26T07:40:50.536Z,10.30
2019-02-26T07:43:22.603Z,12.90
2019-02-26T07:45:53.192Z,15.20
2019-02-26T07:48:26.197Z,16.70
2019-02-26T07:50:55.806Z,17.80
2019-02-26T07:53:26.192Z,19.00
2019-02-26T07:55:58.673Z,20.20
2019-02-26T07:58:30.907Z,21.80
2019-02-26T08:01:01.055Z,23.00
2019-02-26T08:03:33.003Z,23.90
2019-02-26T08:06:06.524Z,24.40
2019-02-26T08:08:37.363Z,24.90
2019-02-26T08:11:07.816Z,25.60
2019-02-26T08:13:38.253Z,26.40
2019-02-26T08:16:08.704Z,26.60
2019-02-26T08:18:39.155Z,26.70
2019-02-26T08:21:11.131Z,26.40
2019-02-26T08:23:43.505Z,26.10
2019-02-26T08:26:15.534Z,26.20
2019-02-26T08:28:48.127Z,26.20
2019-02-26T08:31:20.502Z,25.60
2019-02-26T08:33:51.802Z,25.20
2019-02-26T08:36:22.620Z,25.00
2019-02-26T08:38:56.422Z,25.80
2019-02-26T08:41:25.305Z,26.50
2019-02-26T08:43:56.499Z,27.30
2019-02-26T08:46:27.913Z,28.30
2019-02-26T08:49:07.874Z,28.80
2019-02-26T08:51:30.571Z,28.80
2019-02-26T08:54:01.044Z,28.40
2019-02-26T08:56:33.789Z,28.80
2019-02-26T08:59:03.711Z,29.40
2019-02-26T09:01:34.168Z,30.20
2019-02-26T09:04:04.602Z,31.10
2019-02-26T09:06:35.173Z,31.70
2019-02-26T09:09:07.515Z,32.50
2019-02-26T09:11:38.835Z,32.80
2019-02-26T09:14:11.524Z,33.20
2019-02-26T09:16:41.563Z,33.90
2019-02-26T09:19:12.111Z,34.50
2019-02-26T09:21:44.778Z,34.90
2019-02-26T09:24:14.765Z,35.10
2019-02-26T09:26:45.177Z,35.10
2019-02-26T09:29:17.393Z,35.00
2019-02-26T09:31:47.777Z,34.40
2019-02-26T09:34:18.325Z,34.20
2019-02-26T09:36:52.717Z,34.20
2019-02-26T09:39:20.999Z,34.30
2019-02-26T09:41:51.453Z,33.90
2019-02-26T09:44:23.853Z,33.60
2019-02-26T09:46:55.364Z,33.00
2019-02-26T09:49:28.095Z,32.80
2019-02-26T09:51:59.054Z,32.80
2019-02-26T09:54:30.562Z,33.00
2019-02-26T09:57:01.099Z,33.60
2019-02-26T09:59:33.539Z,34.20
2019-02-26T10:02:05.892Z,35.00
2019-02-26T10:04:35.838Z,35.90
2019-02-26T10:07:07.388Z,35.80
2019-02-26T10:09:40.879Z,35.40
2019-02-26T10:12:12.784Z,34.80
2019-02-26T10:14:42.773Z,34.30
2019-02-26T10:17:14.199Z,34.50
2019-02-26T10:19:45.420Z,35.20
2019-02-26T10:22:15.863Z,35.40
2019-02-26T10:24:46.331Z,34.50
2019-02-26T10:27:16.748Z,34.20
2019-02-26T10:29:47.610Z,34.00
2019-02-26T10:32:21.359Z,34.40
2019-02-26T10:34:51.858Z,33.90
2019-02-26T10:37:22.348Z,34.40
2019-02-26T10:39:54.937Z,34.70
2019-02-26T10:42:25.021Z,35.10
2019-02-26T10:44:55.489Z,35.10
2019-02-26T10:47:27.436Z,35.50
2019-02-26T10:49:58.554Z,35.50
2019-02-26T10:52:29.649Z,35.50
2019-02-26T10:55:00.230Z,35.70
2019-02-26T10:57:31.093Z,36.30
2019-02-26T11:00:04.833Z,36.50
2019-02-26T11:02:34.557Z,36.80
2019-02-26T11:05:05.846Z,37.40
2019-02-26T11:07:38.045Z,37.40
2019-02-26T11:10:08.894Z,37.10
2019-02-26T11:12:39.823Z,37.20
2019-02-26T11:15:13.412Z,36.90
2019-02-26T11:17:45.660Z,37.20
2019-02-26T11:20:16.015Z,37.90
2019-02-26T11:22:47.206Z,37.70
2019-02-26T11:25:21.442Z,37.80
2019-02-26T11:27:51.043Z,38.10
2019-02-26T11:30:23.840Z,37.90
2019-02-26T11:32:58.666Z,38.10
2019-02-26T11:35:27.376Z,38.20
2019-02-26T11:37:58.355Z,38.40
2019-02-26T11:40:30.682Z,38.60
2019-02-26T11:43:10.912Z,38.40
2019-02-26T11:45:35.161Z,38.20
2019-02-26T11:48:06.668Z,38.10
2019-02-26T11:50:38.046Z,38.20
2019-02-26T11:53:09.876Z,38.50
2019-02-26T11:55:40.794Z,39.10
2019-02-26T11:58:15.377Z,39.10
2019-02-26T12:00:50.380Z,39.10
2019-02-26T12:03:22.790Z,38.80
2019-02-26T12:05:54.170Z,38.30
2019-02-26T12:08:27.360Z,37.90
2019-02-26T12:11:03.355Z,36.70
2019-02-26T12:13:30.083Z,35.80
2019-02-26T12:16:00.833Z,34.10
2019-02-26T12:18:31.297Z,31.80
2019-02-26T12:21:03.520Z,29.80
2019-02-26T12:23:37.004Z,28.30
2019-02-26T12:26:07.117Z,26.60
2019-02-26T12:28:38.580Z,25.40
2019-02-26T12:31:12.638Z,24.50
2019-02-26T12:33:41.948Z,23.50
2019-02-26T12:36:12.375Z,22.80
2019-02-26T12:38:43.069Z,22.20
2019-02-26T12:41:15.951Z,21.60
2019-02-26T12:43:46.549Z,21.20
2019-02-26T12:46:19.196Z,21.30
2019-02-26T12:48:50.342Z,22.00
2019-02-26T12:51:22.627Z,23.00
2019-02-26T12:53:53.170Z,23.40
2019-02-26T12:56:24.341Z,23.40
2019-02-26T12:58:55.787Z,23.20
2019-02-26T13:01:26.819Z,23.00
2019-02-26T13:03:57.268Z,22.80
2019-02-26T13:06:27.753Z,22.70
2019-02-26T13:08:58.207Z,22.40
2019-02-26T13:11:28.729Z,21.80
2019-02-26T13:13:59.269Z,21.50
2019-02-26T13:16:29.737Z,21.20
2019-02-26T13:19:04.516Z,21.00
2019-02-26T13:21:33.916Z,20.90
2019-02-26T13:24:11.669Z,20.60
2019-02-26T13:26:39.079Z,20.50
2019-02-26T13:29:09.429Z,20.40
2019-02-26T13:31:44.815Z,20.30
2019-02-26T13:34:14.164Z,20.10
2019-02-26T13:36:52.187Z,20.00
2019-02-26T13:39:21.833Z,19.80
2019-02-26T13:41:54.346Z,19.70
2019-02-26T13:44:22.517Z,19.60
2019-02-26T13:46:53.166Z,19.60
2019-02-26T13:49:23.687Z,19.60
2019-02-26T13:51:54.355Z,19.60
2019-02-26T13:54:25.008Z,19.50
2019-02-26T13:56:55.501Z,19.40
2019-02-26T13:59:25.970Z,19.40
2019-02-26T14:01:56.404Z,19.40
2019-02-26T14:04:27.150Z,19.40
2019-02-26T14:06:57.645Z,19.40
2019-02-26T14:09:29.712Z,19.50
2019-02-26T14:12:00.234Z,19.40
2019-02-26T14:14:31.094Z,19.50
2019-02-26T14:17:01.970Z,19.50
2019-02-26T14:19:32.687Z,19.40
2019-02-26T14:22:03.142Z,19.30
2019-02-26T14:24:33.578Z,19.30
2019-02-26T14:27:04.471Z,19.30
2019-02-26T14:29:34.993Z,19.20
2019-02-26T14:32:05.419Z,19.20
2019-02-26T14:34:36.157Z,19.30
2019-02-26T14:37:06.947Z,19.40
2019-02-26T14:39:37.479Z,19.30
2019-02-26T14:42:08.001Z,19.30
2019-02-26T14:44:38.637Z,19.30
2019-02-26T14:47:09.245Z,19.20
2019-02-26T14:49:39.708Z,19.20
2019-02-26T14:52:10.250Z,19.20
2019-02-26T14:54:40.733Z,19.20
2019-02-26T14:57:11.553Z,19.10
2019-02-26T14:59:42.015Z,19.10
2019-02-26T15:02:13.159Z,19.20
2019-02-26T15:04:43.651Z,19.10
2019-02-26T15:07:14.308Z,19.10
2019-02-26T15:09:45.123Z,19.10
2019-02-26T15:12:15.787Z,19.10
2019-02-26T15:14:48.715Z,19.00
2019-02-26T15:17:18.603Z,18.90
2019-02-26T15:19:50.455Z,18.80
2019-02-26T15:22:21.418Z,18.70
2019-02-26T15:24:54.379Z,18.60
2019-02-26T15:27:24.884Z,18.50
2019-02-26T15:29:55.372Z,18.40
2019-02-26T15:32:26.765Z,18.30
2019-02-26T15:34:57.423Z,18.20
2019-02-26T15:37:27.918Z,18.10
2019-02-26T15:39:58.786Z,18.00
2019-02-26T15:42:29.269Z,17.80
2019-02-26T15:45:00.272Z,17.80
2019-02-26T15:47:32.568Z,17.60
2019-02-26T15:50:03.490Z,17.50
2019-02-26T15:52:34.015Z,17.30
2019-02-26T15:55:04.706Z,17.10
2019-02-26T15:57:35.201Z,16.90
2019-02-26T16:00:06.722Z,16.80
2019-02-26T16:02:37.710Z,16.70
2019-02-26T16:05:09.369Z,16.50
2019-02-26T16:07:40.048Z,16.40
2019-02-26T16:10:11.425Z,16.30
2019-02-26T16:12:42.023Z,16.10
2019-02-26T16:15:13.478Z,15.90
2019-02-26T16:17:44.030Z,15.80
2019-02-26T16:20:17.687Z,15.70
2019-02-26T16:22:49.256Z,15.60
2019-02-26T16:25:19.777Z,15.50
2019-02-26T16:27:51.674Z,15.40
2019-02-26T16:30:23.278Z,15.30
2019-02-26T16:32:54.962Z,15.20
2019-02-26T16:35:25.960Z,15.20
2019-02-26T16:37:56.499Z,15.20
2019-02-26T16:40:31.396Z,15.00
2019-02-26T16:43:01.936Z,14.90
2019-02-26T16:45:38.289Z,14.80
2019-02-26T16:48:13.458Z,14.80
2019-02-26T16:50:45.582Z,14.70
2019-02-26T16:53:16.631Z,14.60
2019-02-26T16:55:49.060Z,14.50
2019-02-26T16:58:23.163Z,14.40
2019-02-26T17:00:53.723Z,14.30
2019-02-26T17:03:24.298Z,14.20
2019-02-26T17:05:54.771Z,14.10
2019-02-26T17:08:25.328Z,13.90
2019-02-26T17:10:55.830Z,13.70
2019-02-26T17:13:26.570Z,13.60
2019-02-26T17:15:59.542Z,13.60
2019-02-26T17:18:29.442Z,13.50
2019-02-26T17:20:59.932Z,13.50
2019-02-26T17:23:30.475Z,13.30
2019-02-26T17:26:01.177Z,13.20
2019-02-26T17:28:32.365Z,13.10
2019-02-26T17:31:02.896Z,13.00
2019-02-26T17:33:33.349Z,12.90
2019-02-26T17:36:03.965Z,12.90
2019-02-26T17:38:34.675Z,12.80
2019-02-26T17:41:05.855Z,12.80
2019-02-26T17:43:36.259Z,12.70
2019-02-26T17:46:07.840Z,12.70
2019-02-26T17:48:43.468Z,12.60
2019-02-26T17:51:11.135Z,12.60
2019-02-26T17:53:41.644Z,12.50
2019-02-26T17:56:12.502Z,12.50
2019-02-26T17:58:43.965Z,12.50
2019-02-26T18:01:15.028Z,12.40
2019-02-26T18:03:45.530Z,12.40
2019-02-26T18:06:16.947Z,12.30
2019-02-26T18:08:47.423Z,12.30
2019-02-26T18:11:17.914Z,12.30
2019-02-26T18:13:48.496Z,12.20
2019-02-26T18:16:19.111Z,12.20
2019-02-26T18:18:49.594Z,12.10
2019-02-26T18:21:20.140Z,12.10
2019-02-26T18:23:51.945Z,12.00
2019-02-26T18:26:22.696Z,12.00
2019-02-26T18:28:53.328Z,11.90
2019-02-26T18:31:26.687Z,11.80
2019-02-26T18:33:57.488Z,11.80
2019-02-26T18:36:27.995Z,11.80
2019-02-26T18:38:58.564Z,11.70
2019-02-26T18:41:30.543Z,11.70
2019-02-26T18:44:07.449Z,11.70
2019-02-26T18:46:38.183Z,11.60
2019-02-26T18:49:08.675Z,11.60
2019-02-26T18:51:39.403Z,11.60
2019-02-26T18:54:10.477Z,11.50
2019-02-26T18:56:41.131Z,11.50
2019-02-26T18:59:11.687Z,11.50
2019-02-26T19:01:42.657Z,11.40
2019-02-26T19:04:13.953Z,11.40
2019-02-26T19:06:45.823Z,11.30
2019-02-26T19:09:17.969Z,11.30
2019-02-26T19:11:48.557Z,11.20
2019-02-26T19:14:19.094Z,11.10
2019-02-26T19:16:54.146Z,11.10
2019-02-26T19:19:21.855Z,11.10
2019-02-26T19:21:54.087Z,11.00
2019-02-26T19:24:24.960Z,11.00
2019-02-26T19:26:55.733Z,11.00
2019-02-26T19:29:26.385Z,10.90
2019-02-26T19:31:56.917Z,10.90
2019-02-26T19:34:28.823Z,10.90
2019-02-26T19:36:59.591Z,10.90
2019-02-26T19:39:33.574Z,10.80
2019-02-26T19:42:04.493Z,10.80
2019-02-26T19:44:35.879Z,10.80
2019-02-26T19:47:07.025Z,10.70
2019-02-26T19:49:39.675Z,10.70
2019-02-26T19:52:10.452Z,10.70
2019-02-26T19:54:42.046Z,10.60
2019-02-26T19:57:13.256Z,10.60
2019-02-26T19:59:46.949Z,10.60
2019-02-26T20:02:18.052Z,10.60
2019-02-26T20:04:48.650Z,10.50
2019-02-26T20:07:19.249Z,10.50
2019-02-26T20:09:50.645Z,10.50
2019-02-26T20:12:21.216Z,10.40
2019-02-26T20:14:52.304Z,10.40
2019-02-26T20:17:22.937Z,10.40
2019-02-26T20:19:53.653Z,10.30
2019-02-26T20:22:25.432Z,10.30
2019-02-26T20:24:55.972Z,10.30
2019-02-26T20:27:26.585Z,10.30
2019-02-26T20:29:57.071Z,10.30
2019-02-26T20:32:30.907Z,10.30
2019-02-26T20:35:00.366Z,10.30
2019-02-26T20:37:31.312Z,10.20
2019-02-26T20:40:01.804Z,10.20
2019-02-26T20:42:32.494Z,10.20
2019-02-26T20:45:03.014Z,10.10
2019-02-26T20:47:33.695Z,10.10
2019-02-26T20:50:04.375Z,10.10
2019-02-26T20:52:34.859Z,10.00
2019-02-26T20:55:05.982Z,10.00
2019-02-26T20:57:37.796Z,10.00
2019-02-26T21:00:12.647Z,10.00
2019-02-26T21:02:43.526Z,9.90
2019-02-26T21:05:14.058Z,9.90
2019-02-26T21:07:44.523Z,9.80
2019-02-26T21:10:16.201Z,9.70
2019-02-26T21:12:46.680Z,9.70
2019-02-26T21:15:18.849Z,9.70
2019-02-26T21:17:49.328Z,9.70
2019-02-26T21:20:19.837Z,9.60
2019-02-26T21:22:54.546Z,9.60
2019-02-26T21:25:22.599Z,9.60
2019-02-26T21:27:53.098Z,9.60
2019-02-26T21:30:23.622Z,9.50
2019-02-26T21:32:57.849Z,9.50
2019-02-26T21:35:26.367Z,9.50
2019-02-26T21:37:56.918Z,9.50
2019-02-26T21:40:27.376Z,9.50
2019-02-26T21:43:01.674Z,9.40
2019-02-26T21:45:30.198Z,9.40
2019-02-26T21:48:02.846Z,9.40
2019-02-26T21:50:32.865Z,9.40
2019-02-26T21:53:03.472Z,9.30
2019-02-26T21:55:43.914Z,9.20
2019-02-26T21:58:06.140Z,9.20
2019-02-26T22:00:36.781Z,9.20
2019-02-26T22:03:08.750Z,9.20
2019-02-26T22:05:39.225Z,9.10
2019-02-26T22:08:09.770Z,9.10
2019-02-26T22:10:42.797Z,9.10
2019-02-26T22:13:13.511Z,9.00
2019-02-26T22:15:44.570Z,9.00
2019-02-26T22:18:15.761Z,9.00
2019-02-26T22:20:46.354Z,9.00
2019-02-26T22:23:16.868Z,9.00
2019-02-26T22:25:49.765Z,9.00
2019-02-26T22:28:19.556Z,8.90
2019-02-26T22:30:50.051Z,8.90
2019-02-26T22:33:20.506Z,8.90
2019-02-26T22:35:51.004Z,8.90
2019-02-26T22:38:21.579Z,8.80
2019-02-26T22:40:52.222Z,8.80
2019-02-26T22:43:22.981Z,8.80
2019-02-26T22:45:53.634Z,8.80
2019-02-26T22:48:24.300Z,8.70
2019-02-26T22:50:54.760Z,8.70
2019-02-26T22:53:25.224Z,8.70
2019-02-26T22:55:55.742Z,8.60
2019-02-26T22:58:26.203Z,8.60
2019-02-26T23:01:20.108Z,8.60
2019-02-26T23:03:50.684Z,8.60
2019-02-26T23:06:21.712Z,8.50
2019-02-26T23:08:53.185Z,8.50
2019-02-26T23:11:23.876Z,8.50
2019-02-26T23:13:54.701Z,8.50
2019-02-26T23:16:25.575Z,8.50
2019-02-26T23:18:56.895Z,8.50
2019-02-26T23:21:28.215Z,8.40
2019-02-26T23:23:58.819Z,8.40
2019-02-26T23:26:29.637Z,8.30
2019-02-26T23:29:00.171Z,8.40
2019-02-26T23:31:32.960Z,8.40
2019-02-26T23:34:03.322Z,8.40
2019-02-26T23:36:34.155Z,8.40
2019-02-26T23:39:06.747Z,8.30
2019-02-26T23:41:37.158Z,8.30
2019-02-26T23:44:07.753Z,8.30
2019-02-26T23:46:38.637Z,8.30
2019-02-26T23:49:09.031Z,8.20
2019-02-26T23:51:39.565Z,8.20
2019-02-26T23:54:11.948Z,8.20
2019-02-26T23:56:44.323Z,8.10
2019-02-26T23:59:14.917Z,8.10
